sensor_id;sensor_type;location;lat;lon;timestamp;pressure;altitude;pressure_sealevel;temperature;humidity
3544;BME280;1786;52.870;9.578;2023-02-03T00:00:49;100901.84;;;14.12;72.84
3544;BME280;1786;52.870;9.578;2023-02-03T00:03:16;100897.59;;;14.09;72.79
3544;BME280;1786;52.870;9.578;2023-02-03T00:05:43;100893.81;;;13.88;73.58
3544;BME280;1786;52.870;9.578;2023-02-03T00:08:10;100878.94;;;14.22;72.71
3544;BME280;1786;52.870;9.578;2023-02-03T00:10:37;100888.34;;;14.26;72.65
3544;BME280;1786;52.870;9.578;2023-02-03T00:13:05;100897.47;;;14.35;72.60
3544;BME280;1786;52.870;9.578;2023-02-03T00:15:32;100899.97;;;13.88;73.89
3544;BME280;1786;52.870;9.578;2023-02-03T00:17:58;100902.91;;;14.09;72.97
3544;BME280;1786;52.870;9.578;2023-02-03T00:20:25;100902.31;;;14.41;71.94
3544;BME280;1786;52.870;9.578;2023-02-03T00:22:52;100901.78;;;14.24;72.44
3544;BME280;1786;52.870;9.578;2023-02-03T00:25:19;100889.59;;;14.33;72.14
3544;BME280;1786;52.870;9.578;2023-02-03T00:27:46;100901.13;;;14.69;71.28
3544;BME280;1786;52.870;9.578;2023-02-03T00:30:13;100901.66;;;14.74;70.99
3544;BME280;1786;52.870;9.578;2023-02-03T00:32:40;100911.63;;;14.59;71.49
3544;BME280;1786;52.870;9.578;2023-02-03T00:35:06;100899.91;;;14.97;70.27
3544;BME280;1786;52.870;9.578;2023-02-03T00:37:35;100887.72;;;14.59;71.58
3544;BME280;1786;52.870;9.578;2023-02-03T00:40:01;100896.56;;;14.47;71.83
3544;BME280;1786;52.870;9.578;2023-02-03T00:42:30;100904.03;;;14.42;72.33
3544;BME280;1786;52.870;9.578;2023-02-03T00:44:56;100899.44;;;14.68;71.31
3544;BME280;1786;52.870;9.578;2023-02-03T00:47:23;100888.22;;;14.16;73.34
3544;BME280;1786;52.870;9.578;2023-02-03T00:49:49;100894.19;;;14.31;72.62
3544;BME280;1786;52.870;9.578;2023-02-03T00:52:16;100898.00;;;14.51;71.69
3544;BME280;1786;52.870;9.578;2023-02-03T00:54:43;100894.38;;;15.23;69.92
3544;BME280;1786;52.870;9.578;2023-02-03T00:57:09;100902.34;;;14.65;71.64
3544;BME280;1786;52.870;9.578;2023-02-03T00:59:37;100906.44;;;15.27;69.51
3544;BME280;1786;52.870;9.578;2023-02-03T01:02:04;100902.44;;;14.63;71.40
3544;BME280;1786;52.870;9.578;2023-02-03T01:04:31;100904.66;;;16.38;65.85
3544;BME280;1786;52.870;9.578;2023-02-03T01:06:57;100899.41;;;14.33;72.24
3544;BME280;1786;52.870;9.578;2023-02-03T01:09:25;100914.47;;;15.61;69.22
3544;BME280;1786;52.870;9.578;2023-02-03T01:11:52;100915.31;;;15.39;68.96
3544;BME280;1786;52.870;9.578;2023-02-03T01:14:19;100898.69;;;14.55;72.07
3544;BME280;1786;52.870;9.578;2023-02-03T01:16:46;100896.34;;;14.02;73.23
3544;BME280;1786;52.870;9.578;2023-02-03T01:19:12;100889.28;;;14.14;73.50
3544;BME280;1786;52.870;9.578;2023-02-03T01:21:40;100894.47;;;16.97;65.16
3544;BME280;1786;52.870;9.578;2023-02-03T01:24:07;100883.16;;;16.72;65.50
3544;BME280;1786;52.870;9.578;2023-02-03T01:26:37;100877.09;;;15.40;68.18
3544;BME280;1786;52.870;9.578;2023-02-03T01:29:04;100885.91;;;17.03;64.52
3544;BME280;1786;52.870;9.578;2023-02-03T01:31:33;100865.69;;;15.83;66.76
3544;BME280;1786;52.870;9.578;2023-02-03T01:34:07;100865.88;;;14.19;72.04
3544;BME280;1786;52.870;9.578;2023-02-03T01:36:36;100854.56;;;14.63;70.69
3544;BME280;1786;52.870;9.578;2023-02-03T01:39:04;100851.88;;;13.80;73.18
3544;BME280;1786;52.870;9.578;2023-02-03T01:41:36;100833.72;;;13.87;73.62
3544;BME280;1786;52.870;9.578;2023-02-03T01:47:01;100827.09;;;14.16;71.95
3544;BME280;1786;52.870;9.578;2023-02-03T01:49:34;100821.81;;;14.27;72.14
3544;BME280;1786;52.870;9.578;2023-02-03T01:52:02;100800.53;;;14.27;72.24
3544;BME280;1786;52.870;9.578;2023-02-03T01:54:32;100802.66;;;14.46;71.28
3544;BME280;1786;52.870;9.578;2023-02-03T01:57:05;100803.97;;;14.41;71.16
3544;BME280;1786;52.870;9.578;2023-02-03T01:59:35;100794.16;;;14.06;72.34
3544;BME280;1786;52.870;9.578;2023-02-03T02:02:03;100796.59;;;15.13;68.58
3544;BME280;1786;52.870;9.578;2023-02-03T02:05:13;100791.38;;;13.72;73.28
3544;BME280;1786;52.870;9.578;2023-02-03T02:07:42;100785.69;;;13.53;74.01
3544;BME280;1786;52.870;9.578;2023-02-03T02:10:09;100793.88;;;13.87;73.06
3544;BME280;1786;52.870;9.578;2023-02-03T02:12:36;100786.78;;;14.34;71.59
3544;BME280;1786;52.870;9.578;2023-02-03T02:15:03;100800.69;;;14.84;69.71
3544;BME280;1786;52.870;9.578;2023-02-03T02:17:43;100787.41;;;15.06;69.25
3544;BME280;1786;52.870;9.578;2023-02-03T02:23:18;100788.44;;;14.23;71.51
3544;BME280;1786;52.870;9.578;2023-02-03T02:26:25;100775.88;;;14.25;71.36
3544;BME280;1786;52.870;9.578;2023-02-03T02:29:27;100771.06;;;14.19;71.19
3544;BME280;1786;52.870;9.578;2023-02-03T02:35:17;100775.28;;;13.87;72.11
3544;BME280;1786;52.870;9.578;2023-02-03T02:37:54;100775.94;;;14.01;72.14
3544;BME280;1786;52.870;9.578;2023-02-03T02:41:10;100773.03;;;14.40;71.01
3544;BME280;1786;52.870;9.578;2023-02-03T02:43:44;100779.28;;;14.27;71.37
3544;BME280;1786;52.870;9.578;2023-02-03T02:46:16;100792.41;;;14.18;71.85
3544;BME280;1786;52.870;9.578;2023-02-03T02:48:54;100785.84;;;14.35;71.62
3544;BME280;1786;52.870;9.578;2023-02-03T02:51:23;100766.72;;;14.29;71.90
3544;BME280;1786;52.870;9.578;2023-02-03T02:53:59;100762.97;;;14.90;69.73
3544;BME280;1786;52.870;9.578;2023-02-03T02:56:30;100769.47;;;14.63;70.59
3544;BME280;1786;52.870;9.578;2023-02-03T02:59:01;100753.75;;;15.28;69.40
3544;BME280;1786;52.870;9.578;2023-02-03T03:01:29;100754.16;;;16.31;65.79
3544;BME280;1786;52.870;9.578;2023-02-03T03:03:59;100775.06;;;16.99;63.58
3544;BME280;1786;52.870;9.578;2023-02-03T03:06:31;100755.94;;;16.94;63.31
3544;BME280;1786;52.870;9.578;2023-02-03T03:09:06;100745.22;;;15.56;66.87
3544;BME280;1786;52.870;9.578;2023-02-03T03:11:45;100759.56;;;16.72;64.00
3544;BME280;1786;52.870;9.578;2023-02-03T03:14:17;100756.22;;;16.49;63.99
3544;BME280;1786;52.870;9.578;2023-02-03T03:16:52;100737.16;;;14.45;69.93
3544;BME280;1786;52.870;9.578;2023-02-03T03:19:23;100726.44;;;13.76;72.19
3544;BME280;1786;52.870;9.578;2023-02-03T03:21:54;100743.06;;;13.67;72.93
3544;BME280;1786;52.870;9.578;2023-02-03T03:24:32;100742.28;;;15.59;67.73
3544;BME280;1786;52.870;9.578;2023-02-03T03:27:12;100742.22;;;15.93;65.83
3544;BME280;1786;52.870;9.578;2023-02-03T03:29:43;100742.13;;;15.40;66.66
3544;BME280;1786;52.870;9.578;2023-02-03T03:32:13;100744.22;;;14.91;68.50
3544;BME280;1786;52.870;9.578;2023-02-03T03:34:40;100727.16;;;14.94;67.81
3544;BME280;1786;52.870;9.578;2023-02-03T03:37:17;100721.84;;;14.60;69.43
3544;BME280;1786;52.870;9.578;2023-02-03T03:39:51;100718.16;;;13.81;71.72
3544;BME280;1786;52.870;9.578;2023-02-03T03:42:27;100723.50;;;14.03;71.30
3544;BME280;1786;52.870;9.578;2023-02-03T03:45:12;100709.97;;;13.95;71.25
3544;BME280;1786;52.870;9.578;2023-02-03T03:47:56;100710.50;;;14.69;69.14
3544;BME280;1786;52.870;9.578;2023-02-03T03:50:28;100710.97;;;14.63;68.92
3544;BME280;1786;52.870;9.578;2023-02-03T03:52:59;100692.31;;;14.29;69.39
3544;BME280;1786;52.870;9.578;2023-02-03T03:55:29;100685.66;;;15.14;67.51
3544;BME280;1786;52.870;9.578;2023-02-03T03:58:03;100690.75;;;14.49;68.94
3544;BME280;1786;52.870;9.578;2023-02-03T04:00:33;100687.44;;;14.23;69.51
3544;BME280;1786;52.870;9.578;2023-02-03T04:03:16;100698.03;;;14.01;70.38
3544;BME280;1786;52.870;9.578;2023-02-03T04:05:45;100702.81;;;13.84;70.61
3544;BME280;1786;52.870;9.578;2023-02-03T04:08:11;100708.38;;;13.93;70.76
3544;BME280;1786;52.870;9.578;2023-02-03T04:10:40;100705.09;;;14.24;70.77
3544;BME280;1786;52.870;9.578;2023-02-03T04:13:08;100702.34;;;14.37;69.61
3544;BME280;1786;52.870;9.578;2023-02-03T04:15:35;100699.78;;;14.24;70.10
3544;BME280;1786;52.870;9.578;2023-02-03T04:18:03;100708.44;;;14.62;69.08
3544;BME280;1786;52.870;9.578;2023-02-03T04:20:31;100715.19;;;14.08;70.14
3544;BME280;1786;52.870;9.578;2023-02-03T04:22:58;100708.72;;;13.88;70.89
3544;BME280;1786;52.870;9.578;2023-02-03T04:25:25;100693.09;;;13.72;71.19
3544;BME280;1786;52.870;9.578;2023-02-03T04:27:51;100685.22;;;14.06;70.56
3544;BME280;1786;52.870;9.578;2023-02-03T04:30:18;100698.31;;;14.09;70.17
3544;BME280;1786;52.870;9.578;2023-02-03T04:32:45;100685.47;;;14.03;70.64
3544;BME280;1786;52.870;9.578;2023-02-03T04:35:13;100676.72;;;13.78;70.92
3544;BME280;1786;52.870;9.578;2023-02-03T04:37:40;100671.19;;;13.81;70.82
3544;BME280;1786;52.870;9.578;2023-02-03T04:40:07;100668.41;;;13.83;71.16
3544;BME280;1786;52.870;9.578;2023-02-03T04:42:37;100662.63;;;13.89;70.54
3544;BME280;1786;52.870;9.578;2023-02-03T04:45:06;100667.63;;;13.70;71.54
3544;BME280;1786;52.870;9.578;2023-02-03T04:47:34;100671.53;;;13.53;71.47
3544;BME280;1786;52.870;9.578;2023-02-03T04:50:00;100670.44;;;13.44;72.17
3544;BME280;1786;52.870;9.578;2023-02-03T04:52:27;100664.16;;;13.80;70.98
3544;BME280;1786;52.870;9.578;2023-02-03T04:54:54;100652.31;;;13.73;70.84
3544;BME280;1786;52.870;9.578;2023-02-03T04:57:20;100649.78;;;13.72;71.77
3544;BME280;1786;52.870;9.578;2023-02-03T04:59:47;100642.63;;;13.61;71.44
3544;BME280;1786;52.870;9.578;2023-02-03T05:02:14;100639.81;;;13.51;71.83
3544;BME280;1786;52.870;9.578;2023-02-03T05:04:40;100641.84;;;13.48;72.93
3544;BME280;1786;52.870;9.578;2023-02-03T05:07:08;100638.91;;;13.39;72.23
3544;BME280;1786;52.870;9.578;2023-02-03T05:09:34;100640.25;;;13.69;71.90
3544;BME280;1786;52.870;9.578;2023-02-03T05:12:01;100637.69;;;14.14;70.63
3544;BME280;1786;52.870;9.578;2023-02-03T05:14:28;100631.06;;;13.38;72.90
3544;BME280;1786;52.870;9.578;2023-02-03T05:16:54;100632.28;;;13.21;73.40
3544;BME280;1786;52.870;9.578;2023-02-03T05:19:21;100623.34;;;13.70;72.29
3544;BME280;1786;52.870;9.578;2023-02-03T05:21:47;100618.44;;;13.53;72.63
3544;BME280;1786;52.870;9.578;2023-02-03T05:24:14;100628.53;;;13.72;71.96
3544;BME280;1786;52.870;9.578;2023-02-03T05:26:41;100648.69;;;13.74;71.91
3544;BME280;1786;52.870;9.578;2023-02-03T05:29:07;100644.63;;;13.81;71.93
3544;BME280;1786;52.870;9.578;2023-02-03T05:31:35;100640.91;;;13.49;72.85
3544;BME280;1786;52.870;9.578;2023-02-03T05:34:02;100641.91;;;13.70;72.09
3544;BME280;1786;52.870;9.578;2023-02-03T05:36:28;100642.31;;;13.41;72.43
3544;BME280;1786;52.870;9.578;2023-02-03T05:38:55;100633.75;;;13.84;71.86
3544;BME280;1786;52.870;9.578;2023-02-03T05:41:22;100652.84;;;13.78;71.65
3544;BME280;1786;52.870;9.578;2023-02-03T05:44:07;100641.84;;;13.48;73.00
3544;BME280;1786;52.870;9.578;2023-02-03T05:46:33;100639.75;;;13.64;72.06
3544;BME280;1786;52.870;9.578;2023-02-03T05:49:00;100652.97;;;13.29;73.31
3544;BME280;1786;52.870;9.578;2023-02-03T05:51:26;100648.16;;;13.58;73.05
3544;BME280;1786;52.870;9.578;2023-02-03T05:53:53;100643.63;;;13.71;73.00
3544;BME280;1786;52.870;9.578;2023-02-03T05:56:20;100635.75;;;13.34;73.91
3544;BME280;1786;52.870;9.578;2023-02-03T05:58:46;100640.50;;;13.77;73.30
3544;BME280;1786;52.870;9.578;2023-02-03T06:01:13;100625.19;;;13.92;73.17
3544;BME280;1786;52.870;9.578;2023-02-03T06:03:40;100630.97;;;13.75;73.64
3544;BME280;1786;52.870;9.578;2023-02-03T06:06:09;100625.03;;;13.71;73.53
3544;BME280;1786;52.870;9.578;2023-02-03T06:08:36;100617.25;;;13.57;74.42
3544;BME280;1786;52.870;9.578;2023-02-03T06:11:03;100604.28;;;13.76;73.79
3544;BME280;1786;52.870;9.578;2023-02-03T06:13:29;100624.03;;;14.07;72.76
3544;BME280;1786;52.870;9.578;2023-02-03T06:15:56;100619.88;;;13.81;73.60
3544;BME280;1786;52.870;9.578;2023-02-03T06:18:23;100610.34;;;13.78;74.07
3544;BME280;1786;52.870;9.578;2023-02-03T06:20:49;100594.16;;;13.81;74.23
3544;BME280;1786;52.870;9.578;2023-02-03T06:23:16;100602.13;;;13.93;73.62
3544;BME280;1786;52.870;9.578;2023-02-03T06:25:47;100601.91;;;14.41;71.63
3544;BME280;1786;52.870;9.578;2023-02-03T06:28:13;100605.53;;;13.83;74.02
3544;BME280;1786;52.870;9.578;2023-02-03T06:30:40;100586.59;;;13.99;73.32
3544;BME280;1786;52.870;9.578;2023-02-03T06:33:07;100586.47;;;14.12;72.37
3544;BME280;1786;52.870;9.578;2023-02-03T06:35:34;100582.00;;;14.01;73.24
3544;BME280;1786;52.870;9.578;2023-02-03T06:38:00;100590.25;;;13.63;74.68
3544;BME280;1786;52.870;9.578;2023-02-03T06:40:27;100582.09;;;13.89;74.07
3544;BME280;1786;52.870;9.578;2023-02-03T06:42:54;100592.91;;;13.63;74.43
3544;BME280;1786;52.870;9.578;2023-02-03T06:45:21;100582.41;;;13.73;74.77
3544;BME280;1786;52.870;9.578;2023-02-03T06:47:49;100589.78;;;13.80;74.49
3544;BME280;1786;52.870;9.578;2023-02-03T06:50:16;100589.59;;;13.83;74.46
3544;BME280;1786;52.870;9.578;2023-02-03T06:52:43;100579.59;;;13.52;75.14
3544;BME280;1786;52.870;9.578;2023-02-03T06:55:10;100575.31;;;13.38;75.73
3544;BME280;1786;52.870;9.578;2023-02-03T06:57:44;100571.91;;;13.60;75.55
3544;BME280;1786;52.870;9.578;2023-02-03T07:00:13;100560.53;;;13.47;75.60
3544;BME280;1786;52.870;9.578;2023-02-03T07:02:44;100563.44;;;13.55;75.15
3544;BME280;1786;52.870;9.578;2023-02-03T07:05:11;100555.91;;;13.37;76.37
3544;BME280;1786;52.870;9.578;2023-02-03T07:07:37;100557.88;;;13.47;76.06
3544;BME280;1786;52.870;9.578;2023-02-03T07:10:05;100556.25;;;14.13;73.33
3544;BME280;1786;52.870;9.578;2023-02-03T07:12:32;100552.31;;;14.19;73.09
3544;BME280;1786;52.870;9.578;2023-02-03T07:14:58;100565.09;;;14.14;73.36
3544;BME280;1786;52.870;9.578;2023-02-03T07:17:25;100563.75;;;14.42;72.65
3544;BME280;1786;52.870;9.578;2023-02-03T07:19:51;100569.09;;;14.19;72.92
3544;BME280;1786;52.870;9.578;2023-02-03T07:22:18;100558.66;;;14.61;71.83
3544;BME280;1786;52.870;9.578;2023-02-03T07:24:44;100563.59;;;14.77;71.72
3544;BME280;1786;52.870;9.578;2023-02-03T07:27:11;100538.75;;;14.44;72.33
3544;BME280;1786;52.870;9.578;2023-02-03T07:29:38;100552.63;;;14.48;72.61
3544;BME280;1786;52.870;9.578;2023-02-03T07:32:04;100544.19;;;13.98;73.70
3544;BME280;1786;52.870;9.578;2023-02-03T07:34:31;100542.44;;;13.52;74.43
3544;BME280;1786;52.870;9.578;2023-02-03T07:36:58;100553.25;;;14.29;72.81
3544;BME280;1786;52.870;9.578;2023-02-03T07:39:26;100558.31;;;13.98;73.91
3544;BME280;1786;52.870;9.578;2023-02-03T07:41:53;100559.06;;;13.42;75.53
3544;BME280;1786;52.870;9.578;2023-02-03T07:44:21;100550.72;;;14.16;72.58
3544;BME280;1786;52.870;9.578;2023-02-03T07:46:48;100526.81;;;14.05;73.55
3544;BME280;1786;52.870;9.578;2023-02-03T07:49:15;100533.91;;;14.38;72.60
3544;BME280;1786;52.870;9.578;2023-02-03T07:51:41;100530.78;;;14.22;72.79
3544;BME280;1786;52.870;9.578;2023-02-03T07:54:08;100535.47;;;13.96;73.47
3544;BME280;1786;52.870;9.578;2023-02-03T07:56:35;100538.16;;;14.29;72.37
3544;BME280;1786;52.870;9.578;2023-02-03T07:59:02;100539.63;;;14.11;72.52
3544;BME280;1786;52.870;9.578;2023-02-03T08:01:29;100538.03;;;13.97;73.08
3544;BME280;1786;52.870;9.578;2023-02-03T08:03:56;100542.50;;;14.08;72.89
3544;BME280;1786;52.870;9.578;2023-02-03T08:06:23;100532.72;;;13.97;73.68
3544;BME280;1786;52.870;9.578;2023-02-03T08:08:50;100539.84;;;14.42;71.75
3544;BME280;1786;52.870;9.578;2023-02-03T08:11:16;100531.00;;;14.96;69.37
3544;BME280;1786;52.870;9.578;2023-02-03T08:13:43;100537.38;;;14.61;70.49
3544;BME280;1786;52.870;9.578;2023-02-03T08:16:10;100543.69;;;14.38;71.78
3544;BME280;1786;52.870;9.578;2023-02-03T08:18:36;100535.72;;;14.38;71.72
3544;BME280;1786;52.870;9.578;2023-02-03T08:21:03;100524.50;;;14.00;72.40
3544;BME280;1786;52.870;9.578;2023-02-03T08:23:30;100528.50;;;14.17;72.49
3544;BME280;1786;52.870;9.578;2023-02-03T08:25:57;100532.59;;;14.10;73.06
3544;BME280;1786;52.870;9.578;2023-02-03T08:28:24;100523.53;;;14.24;72.72
3544;BME280;1786;52.870;9.578;2023-02-03T08:30:51;100515.75;;;14.43;72.08
3544;BME280;1786;52.870;9.578;2023-02-03T08:33:17;100516.66;;;14.10;72.29
3544;BME280;1786;52.870;9.578;2023-02-03T08:35:45;100516.63;;;14.44;72.13
3544;BME280;1786;52.870;9.578;2023-02-03T08:38:12;100508.16;;;14.39;72.03
3544;BME280;1786;52.870;9.578;2023-02-03T08:40:39;100518.41;;;14.43;71.69
3544;BME280;1786;52.870;9.578;2023-02-03T08:43:05;100536.44;;;14.62;71.58
3544;BME280;1786;52.870;9.578;2023-02-03T08:45:32;100534.94;;;14.81;70.82
3544;BME280;1786;52.870;9.578;2023-02-03T08:47:59;100550.41;;;14.87;70.81
3544;BME280;1786;52.870;9.578;2023-02-03T08:50:26;100535.41;;;14.86;70.75
3544;BME280;1786;52.870;9.578;2023-02-03T08:52:53;100554.31;;;15.04;70.11
3544;BME280;1786;52.870;9.578;2023-02-03T08:55:19;100545.50;;;14.60;71.54
3544;BME280;1786;52.870;9.578;2023-02-03T08:57:46;100550.78;;;15.14;70.35
3544;BME280;1786;52.870;9.578;2023-02-03T09:00:13;100541.81;;;15.15;70.81
3544;BME280;1786;52.870;9.578;2023-02-03T09:02:39;100555.66;;;14.32;72.92
3544;BME280;1786;52.870;9.578;2023-02-03T09:05:06;100545.09;;;14.76;71.83
3544;BME280;1786;52.870;9.578;2023-02-03T09:07:33;100564.28;;;14.90;71.49
3544;BME280;1786;52.870;9.578;2023-02-03T09:10:00;100553.00;;;15.30;70.38
3544;BME280;1786;52.870;9.578;2023-02-03T09:12:27;100569.25;;;14.84;71.42
3544;BME280;1786;52.870;9.578;2023-02-03T09:14:54;100576.31;;;15.17;70.48
3544;BME280;1786;52.870;9.578;2023-02-03T09:17:20;100574.19;;;15.00;70.73
3544;BME280;1786;52.870;9.578;2023-02-03T09:19:47;100572.69;;;14.75;71.34
3544;BME280;1786;52.870;9.578;2023-02-03T09:22:14;100566.22;;;14.88;71.35
3544;BME280;1786;52.870;9.578;2023-02-03T09:24:40;100575.53;;;15.26;70.65
3544;BME280;1786;52.870;9.578;2023-02-03T09:27:07;100567.94;;;15.43;69.83
3544;BME280;1786;52.870;9.578;2023-02-03T09:29:33;100569.16;;;15.18;70.62
3544;BME280;1786;52.870;9.578;2023-02-03T09:32:00;100573.41;;;14.65;71.70
3544;BME280;1786;52.870;9.578;2023-02-03T09:34:32;100609.41;;;14.92;72.09
3544;BME280;1786;52.870;9.578;2023-02-03T09:36:59;100625.50;;;14.45;73.12
3544;BME280;1786;52.870;9.578;2023-02-03T09:39:25;100641.34;;;13.42;70.87
3544;BME280;1786;52.870;9.578;2023-02-03T09:47:26;100607.81;;;13.53;67.88
3544;BME280;1786;52.870;9.578;2023-02-03T09:50:03;100605.03;;;13.19;68.49
3544;BME280;1786;52.870;9.578;2023-02-03T09:52:37;100608.31;;;13.47;67.42
3544;BME280;1786;52.870;9.578;2023-02-03T09:55:24;100608.38;;;13.80;67.50
3544;BME280;1786;52.870;9.578;2023-02-03T09:58:08;100613.22;;;13.75;66.47
3544;BME280;1786;52.870;9.578;2023-02-03T10:00:42;100624.31;;;13.80;67.25
3544;BME280;1786;52.870;9.578;2023-02-03T10:03:50;100640.00;;;13.72;67.95
3544;BME280;1786;52.870;9.578;2023-02-03T10:06:39;100646.53;;;13.79;68.09
3544;BME280;1786;52.870;9.578;2023-02-03T10:17:25;100652.50;;;15.18;65.02
3544;BME280;1786;52.870;9.578;2023-02-03T10:20:05;100635.38;;;15.00;64.17
3544;BME280;1786;52.870;9.578;2023-02-03T10:22:40;100647.34;;;14.94;64.39
3544;BME280;1786;52.870;9.578;2023-02-03T10:25:18;100649.16;;;15.05;63.78
3544;BME280;1786;52.870;9.578;2023-02-03T10:27:55;100645.78;;;14.91;63.60
3544;BME280;1786;52.870;9.578;2023-02-03T10:30:27;100650.38;;;15.01;63.97
3544;BME280;1786;52.870;9.578;2023-02-03T10:33:10;100677.44;;;15.49;62.42
3544;BME280;1786;52.870;9.578;2023-02-03T10:35:58;100670.09;;;15.09;62.81
3544;BME280;1786;52.870;9.578;2023-02-03T10:41:07;100673.47;;;14.89;63.63
3544;BME280;1786;52.870;9.578;2023-02-03T10:43:34;100685.19;;;15.09;63.39
3544;BME280;1786;52.870;9.578;2023-02-03T10:46:14;100689.28;;;15.13;62.86
3544;BME280;1786;52.870;9.578;2023-02-03T10:48:41;100690.91;;;15.48;61.31
3544;BME280;1786;52.870;9.578;2023-02-03T10:51:26;100701.72;;;15.24;62.18
3544;BME280;1786;52.870;9.578;2023-02-03T10:53:53;100704.53;;;15.11;62.53
3544;BME280;1786;52.870;9.578;2023-02-03T10:56:25;100702.75;;;14.78;63.05
3544;BME280;1786;52.870;9.578;2023-02-03T10:58:54;100700.84;;;15.34;62.40
3544;BME280;1786;52.870;9.578;2023-02-03T11:01:24;100711.69;;;15.54;61.37
3544;BME280;1786;52.870;9.578;2023-02-03T11:03:58;100720.22;;;15.36;61.80
3544;BME280;1786;52.870;9.578;2023-02-03T11:06:26;100728.66;;;15.42;61.90
3544;BME280;1786;52.870;9.578;2023-02-03T11:08:53;100714.06;;;15.68;61.20
3544;BME280;1786;52.870;9.578;2023-02-03T11:11:27;100722.13;;;15.89;60.90
3544;BME280;1786;52.870;9.578;2023-02-03T11:16:33;100726.16;;;15.40;61.45
3544;BME280;1786;52.870;9.578;2023-02-03T11:19:14;100726.56;;;15.68;61.33
3544;BME280;1786;52.870;9.578;2023-02-03T11:21:46;100713.47;;;15.32;62.20
3544;BME280;1786;52.870;9.578;2023-02-03T11:24:30;100697.97;;;15.26;59.74
3544;BME280;1786;52.870;9.578;2023-02-03T11:26:59;100718.72;;;14.78;60.11
3544;BME280;1786;52.870;9.578;2023-02-03T11:29:37;100723.84;;;14.45;60.35
3544;BME280;1786;52.870;9.578;2023-02-03T11:32:15;100719.63;;;14.43;60.23
3544;BME280;1786;52.870;9.578;2023-02-03T11:34:55;100731.78;;;14.12;60.20
3544;BME280;1786;52.870;9.578;2023-02-03T11:42:45;100744.34;;;14.90;60.35
3544;BME280;1786;52.870;9.578;2023-02-03T11:57:26;100729.22;;;14.10;60.51
3544;BME280;1786;52.870;9.578;2023-02-03T12:02:50;100734.66;;;15.11;60.10
3544;BME280;1786;52.870;9.578;2023-02-03T12:05:38;100756.56;;;14.81;58.59
3544;BME280;1786;52.870;9.578;2023-02-03T12:08:30;100747.91;;;14.44;58.11
3544;BME280;1786;52.870;9.578;2023-02-03T12:11:11;100750.53;;;14.33;58.48
3544;BME280;1786;52.870;9.578;2023-02-03T12:13:59;100772.03;;;14.99;58.79
3544;BME280;1786;52.870;9.578;2023-02-03T12:16:55;100775.31;;;15.13;57.71
3544;BME280;1786;52.870;9.578;2023-02-03T12:19:31;100782.06;;;15.06;57.01
3544;BME280;1786;52.870;9.578;2023-02-03T12:22:29;100777.31;;;15.44;56.25
3544;BME280;1786;52.870;9.578;2023-02-03T12:28:00;100772.66;;;14.91;55.33
3544;BME280;1786;52.870;9.578;2023-02-03T12:30:40;100772.28;;;14.84;56.43
3544;BME280;1786;52.870;9.578;2023-02-03T12:33:19;100800.34;;;14.88;55.23
3544;BME280;1786;52.870;9.578;2023-02-03T12:36:04;100795.53;;;15.05;55.71
3544;BME280;1786;52.870;9.578;2023-02-03T12:38:53;100798.03;;;15.29;54.22
3544;BME280;1786;52.870;9.578;2023-02-03T12:41:28;100810.34;;;15.64;54.73
3544;BME280;1786;52.870;9.578;2023-02-03T12:44:00;100802.72;;;14.58;55.34
3544;BME280;1786;52.870;9.578;2023-02-03T12:46:42;100785.91;;;14.57;55.43
3544;BME280;1786;52.870;9.578;2023-02-03T12:51:51;100800.81;;;14.82;54.97
3544;BME280;1786;52.870;9.578;2023-02-03T12:57:15;100805.53;;;14.67;55.25
3544;BME280;1786;52.870;9.578;2023-02-03T12:59:52;100795.09;;;14.53;54.71
3544;BME280;1786;52.870;9.578;2023-02-03T13:02:25;100802.59;;;14.59;55.35
3544;BME280;1786;52.870;9.578;2023-02-03T13:04:56;100802.66;;;15.15;54.96
3544;BME280;1786;52.870;9.578;2023-02-03T13:07:32;100801.44;;;15.97;53.88
3544;BME280;1786;52.870;9.578;2023-02-03T13:10:05;100794.13;;;14.54;55.55
3544;BME280;1786;52.870;9.578;2023-02-03T13:12:42;100809.97;;;14.56;55.96
3544;BME280;1786;52.870;9.578;2023-02-03T13:15:33;100801.84;;;14.22;56.46
3544;BME280;1786;52.870;9.578;2023-02-03T13:18:24;100802.09;;;14.19;56.72
3544;BME280;1786;52.870;9.578;2023-02-03T13:20:53;100799.69;;;13.92;57.19
3544;BME280;1786;52.870;9.578;2023-02-03T13:23:21;100793.75;;;14.23;56.64
3544;BME280;1786;52.870;9.578;2023-02-03T13:28:34;100795.25;;;14.39;57.46
3544;BME280;1786;52.870;9.578;2023-02-03T13:42:30;100815.47;;;15.10;54.49
3544;BME280;1786;52.870;9.578;2023-02-03T13:48:21;100824.19;;;15.35;54.29
3544;BME280;1786;52.870;9.578;2023-02-03T13:51:02;100843.50;;;14.69;54.18
3544;BME280;1786;52.870;9.578;2023-02-03T13:53:36;100854.38;;;13.94;55.50
3544;BME280;1786;52.870;9.578;2023-02-03T13:56:16;100845.34;;;13.60;55.03
3544;BME280;1786;52.870;9.578;2023-02-03T13:59:04;100850.06;;;14.28;55.03
3544;BME280;1786;52.870;9.578;2023-02-03T14:01:37;100857.88;;;13.95;55.18
3544;BME280;1786;52.870;9.578;2023-02-03T14:04:07;100852.47;;;14.20;55.14
3544;BME280;1786;52.870;9.578;2023-02-03T14:11:49;100851.91;;;14.04;54.80
3544;BME280;1786;52.870;9.578;2023-02-03T14:16:47;100870.19;;;14.09;54.71
3544;BME280;1786;52.870;9.578;2023-02-03T14:21:54;100890.06;;;14.03;55.28
3544;BME280;1786;52.870;9.578;2023-02-03T14:24:23;100881.53;;;14.35;55.17
3544;BME280;1786;52.870;9.578;2023-02-03T14:26:56;100873.97;;;13.80;54.82
3544;BME280;1786;52.870;9.578;2023-02-03T14:29:35;100872.69;;;13.36;56.02
3544;BME280;1786;52.870;9.578;2023-02-03T14:32:12;100889.34;;;13.88;55.53
3544;BME280;1786;52.870;9.578;2023-02-03T14:34:44;100890.38;;;13.98;55.05
3544;BME280;1786;52.870;9.578;2023-02-03T14:37:24;100902.22;;;14.18;55.22
3544;BME280;1786;52.870;9.578;2023-02-03T14:45:02;100921.59;;;13.83;55.35
3544;BME280;1786;52.870;9.578;2023-02-03T14:47:55;100929.78;;;13.68;56.23
3544;BME280;1786;52.870;9.578;2023-02-03T14:56:12;100914.69;;;14.42;55.18
3544;BME280;1786;52.870;9.578;2023-02-03T14:58:49;100930.91;;;14.50;54.70
3544;BME280;1786;52.870;9.578;2023-02-03T15:06:43;100935.53;;;14.11;55.38
3544;BME280;1786;52.870;9.578;2023-02-03T15:09:32;100949.47;;;14.02;55.63
3544;BME280;1786;52.870;9.578;2023-02-03T15:12:00;100939.22;;;13.72;56.49